Time;durP1;ratioP1;P1;durP2;ratioP2;P2;SDS_P1;SDS_P2;PMS_P1;PMS_P2;Temp;Humidity;BMP_temperature;BMP_pressure;BME280_temperature;BME280_humidity;BME280_pressure;Samples;Min_cycle;Max_cycle;Signal;HPM_P1;HPM_P2
2021/12/04 00:00:22;;;;;;;3.15;1.50;;;6.60;99.90;;;;;;5053162;28;20021;-75
2021/12/04 00:02:50;;;;;;;3.90;1.48;;;6.60;99.90;;;;;;5053480;28;20032;-75
2021/12/04 00:05:17;;;;;;;1.92;1.25;;;6.60;99.90;;;;;;5054407;28;20036;-75
2021/12/04 00:07:43;;;;;;;2.63;1.30;;;6.60;99.90;;;;;;5053297;28;20460;-75
2021/12/04 00:10:13;;;;;;;3.78;1.40;;;6.60;99.90;;;;;;5054313;28;20025;-75
2021/12/04 00:12:39;;;;;;;3.55;1.23;;;6.50;99.90;;;;;;5055013;28;20029;-76
2021/12/04 00:15:05;;;;;;;10.85;1.52;;;6.50;99.90;;;;;;5054117;28;20057;-75
2021/12/04 00:17:31;;;;;;;4.72;1.70;;;6.50;99.90;;;;;;5053757;28;20101;-76
2021/12/04 00:19:57;;;;;;;5.30;1.92;;;6.50;99.90;;;;;;5053766;28;20492;-74
2021/12/04 00:22:22;;;;;;;4.85;1.77;;;6.50;99.90;;;;;;5052912;28;20427;-74
2021/12/04 00:24:48;;;;;;;3.78;1.88;;;6.50;99.90;;;;;;5053339;28;20143;-74
2021/12/04 00:27:14;;;;;;;2.92;1.50;;;6.40;99.90;;;;;;5054110;28;20029;-74
2021/12/04 00:29:40;;;;;;;3.60;1.50;;;6.40;99.90;;;;;;5053175;28;20029;-75
2021/12/04 00:32:15;;;;;;;4.78;1.80;;;6.40;99.90;;;;;;5053807;28;20033;-74
2021/12/04 00:34:53;;;;;;;3.58;1.40;;;6.40;99.90;;;;;;5053100;28;20074;-75
2021/12/04 00:50:52;;;;;;;8.27;1.35;;;6.50;99.90;;;;;;5053375;28;20088;-74
2021/12/04 00:53:18;;;;;;;5.65;1.40;;;6.50;99.90;;;;;;5052670;28;20496;-73
2021/12/04 00:55:44;;;;;;;4.50;1.77;;;6.50;99.90;;;;;;5052149;28;20036;-73
2021/12/04 00:58:09;;;;;;;5.47;1.30;;;6.50;99.90;;;;;;5053027;28;20031;-73
2021/12/04 01:00:35;;;;;;;3.55;1.10;;;6.50;99.90;;;;;;5053555;28;20029;-76
2021/12/04 01:03:01;;;;;;;4.18;1.52;;;6.50;99.90;;;;;;5052577;28;20028;-74
2021/12/04 01:05:27;;;;;;;8.40;1.30;;;6.40;99.90;;;;;;5054155;28;20539;-73
2021/12/04 01:07:52;;;;;;;9.80;1.50;;;6.40;99.90;;;;;;5052975;28;20040;-74
2021/12/04 01:10:18;;;;;;;3.97;1.45;;;6.40;99.90;;;;;;5051668;28;20091;-73
2021/12/04 01:12:44;;;;;;;7.13;1.60;;;6.40;99.90;;;;;;5052499;28;20035;-74
2021/12/04 01:15:10;;;;;;;8.57;1.33;;;6.40;99.90;;;;;;5054222;28;20036;-73
2021/12/04 01:17:36;;;;;;;8.55;1.75;;;6.40;99.90;;;;;;5053104;28;20025;-76
2021/12/04 01:20:03;;;;;;;5.40;1.52;;;6.40;99.90;;;;;;5053213;28;20386;-73
2021/12/04 01:22:29;;;;;;;5.30;1.60;;;6.30;99.90;;;;;;5054013;28;20021;-73
2021/12/04 01:24:55;;;;;;;8.75;1.77;;;6.30;99.90;;;;;;5052202;28;20029;-73
2021/12/04 01:27:20;;;;;;;7.85;1.50;;;6.30;99.90;;;;;;5052102;28;20028;-72
2021/12/04 01:29:46;;;;;;;6.50;1.70;;;6.20;99.90;;;;;;5052746;28;20051;-73
2021/12/04 01:32:12;;;;;;;7.68;1.70;;;6.20;99.90;;;;;;5053309;28;20036;-72
2021/12/04 01:34:38;;;;;;;6.43;1.80;;;6.10;99.90;;;;;;5052806;28;20082;-75
2021/12/04 01:37:05;;;;;;;6.65;1.70;;;6.00;99.90;;;;;;5053347;28;20033;-73
2021/12/04 01:39:31;;;;;;;8.63;2.10;;;6.00;99.90;;;;;;5051947;28;20033;-73
2021/12/04 01:41:57;;;;;;;15.88;2.42;;;6.00;99.90;;;;;;5052565;28;20100;-73
2021/12/04 01:44:23;;;;;;;9.68;1.80;;;5.90;99.90;;;;;;5053232;28;20052;-73
2021/12/04 01:46:55;;;;;;;7.45;1.77;;;5.90;99.90;;;;;;5051091;28;20474;-74
2021/12/04 01:49:21;;;;;;;11.30;2.30;;;5.80;99.90;;;;;;5053225;28;20389;-73
2021/12/04 01:51:47;;;;;;;9.50;2.40;;;5.80;99.90;;;;;;5052426;28;20087;-74
2021/12/04 01:54:13;;;;;;;13.27;2.22;;;5.80;99.90;;;;;;5053054;28;20049;-73
2021/12/04 01:56:38;;;;;;;9.18;1.85;;;5.70;99.90;;;;;;5052739;28;20032;-76
2021/12/04 01:59:04;;;;;;;14.00;2.28;;;5.70;99.90;;;;;;5052233;28;20060;-73
2021/12/04 02:01:32;;;;;;;8.32;1.77;;;5.70;99.90;;;;;;5056586;28;20025;-73
2021/12/04 02:03:57;;;;;;;9.82;2.70;;;5.60;99.90;;;;;;5051742;28;20648;-73
2021/12/04 02:06:23;;;;;;;8.88;2.03;;;5.60;99.90;;;;;;5052508;28;20032;-73
2021/12/04 02:08:49;;;;;;;10.50;2.75;;;5.60;99.90;;;;;;5051757;28;20029;-73
2021/12/04 02:11:15;;;;;;;12.00;2.80;;;5.60;99.90;;;;;;5052661;28;20021;-73
2021/12/04 02:13:40;;;;;;;11.25;2.63;;;5.60;99.90;;;;;;5051669;28;20068;-75
2021/12/04 02:16:18;;;;;;;10.20;2.78;;;5.50;99.90;;;;;;5052438;28;20025;-73
2021/12/04 02:18:44;;;;;;;17.55;3.13;;;5.50;99.90;;;;;;5051722;28;20029;-73
2021/12/04 02:21:10;;;;;;;12.55;2.35;;;5.40;99.90;;;;;;5052378;28;20020;-73
2021/12/04 02:23:36;;;;;;;20.35;3.00;;;5.40;99.90;;;;;;5051262;28;20356;-72
2021/12/04 02:26:02;;;;;;;15.52;2.33;;;5.40;99.90;;;;;;5051775;28;20154;-72
2021/12/04 02:28:28;;;;;;;18.75;2.30;;;5.30;99.90;;;;;;5051434;28;20056;-72
2021/12/04 02:30:53;;;;;;;13.25;3.30;;;5.40;99.90;;;;;;5051408;28;20028;-73
2021/12/04 02:33:21;;;;;;;12.77;2.47;;;5.30;99.90;;;;;;5052266;28;20037;-73
2021/12/04 02:35:56;;;;;;;13.02;2.13;;;5.30;99.90;;;;;;5050258;28;20063;-73
2021/12/04 02:38:25;;;;;;;9.68;2.10;;;5.30;99.90;;;;;;5052128;28;20081;-72
2021/12/04 02:40:53;;;;;;;14.63;2.88;;;5.20;99.90;;;;;;5051447;28;20464;-72
2021/12/04 02:43:19;;;;;;;13.10;2.35;;;5.20;99.90;;;;;;5052309;28;20035;-73
2021/12/04 02:45:45;;;;;;;16.65;2.85;;;5.20;99.90;;;;;;5051030;28;20417;-75
2021/12/04 02:48:14;;;;;;;21.33;2.97;;;5.20;99.90;;;;;;5051969;28;20029;-72
2021/12/04 02:50:40;;;;;;;11.05;2.08;;;5.10;99.90;;;;;;5050702;28;20479;-73
2021/12/04 02:53:06;;;;;;;17.58;2.83;;;5.10;99.90;;;;;;5051145;28;20037;-73
2021/12/04 02:55:32;;;;;;;13.98;1.92;;;5.00;99.90;;;;;;5051573;28;20045;-73
2021/12/04 02:57:58;;;;;;;11.02;2.17;;;5.00;99.90;;;;;;5049874;28;20032;-72
2021/12/04 03:00:25;;;;;;;15.25;2.42;;;4.90;99.90;;;;;;5051583;28;20392;-72
2021/12/04 03:02:51;;;;;;;11.23;2.40;;;4.90;99.90;;;;;;5051040;28;20040;-72
2021/12/04 03:05:24;;;;;;;17.23;2.95;;;4.90;99.90;;;;;;5051598;28;20033;-73
2021/12/04 03:07:51;;;;;;;11.10;2.25;;;4.90;99.90;;;;;;5050876;28;20044;-73
2021/12/04 03:10:17;;;;;;;16.13;2.67;;;4.90;99.90;;;;;;5051827;28;20104;-73
2021/12/04 03:12:42;;;;;;;16.38;2.50;;;4.80;99.90;;;;;;5051539;28;20121;-74
2021/12/04 03:15:09;;;;;;;10.90;2.58;;;4.80;99.90;;;;;;5051062;28;20049;-71
2021/12/04 03:17:34;;;;;;;13.52;2.72;;;4.80;99.90;;;;;;5053717;28;20025;-72
2021/12/04 03:20:01;;;;;;;15.52;2.47;;;4.80;99.90;;;;;;5052863;28;20028;-72
2021/12/04 03:22:27;;;;;;;15.48;2.40;;;4.80;99.90;;;;;;5051780;28;20037;-72
2021/12/04 03:24:56;;;;;;;11.50;2.20;;;4.70;99.90;;;;;;5051247;28;20060;-73
2021/12/04 03:27:24;;;;;;;6.93;1.85;;;4.80;99.90;;;;;;5051563;28;20483;-73
2021/12/04 03:29:56;;;;;;;15.75;2.28;;;4.70;99.90;;;;;;5050570;28;20476;-73
2021/12/04 03:40:59;;;;;;;12.20;2.20;;;4.60;99.90;;;;;;5012502;28;20080;-73
2021/12/04 03:43:25;;;;;;;10.75;2.10;;;4.60;99.90;;;;;;5013269;28;20042;-72
2021/12/04 03:46:02;;;;;;;11.05;2.13;;;4.60;99.90;;;;;;5022099;28;20091;-73
2021/12/04 03:51:02;;;;;;;8.90;1.70;;;4.50;99.90;;;;;;5054653;28;20074;-73
2021/12/04 03:53:28;;;;;;;12.70;1.83;;;4.40;99.90;;;;;;5055031;28;20033;-73
2021/12/04 03:55:54;;;;;;;9.82;2.10;;;4.40;99.90;;;;;;5054808;28;20517;-73
2021/12/04 03:58:20;;;;;;;10.43;1.88;;;4.40;99.90;;;;;;5055158;28;20029;-73
2021/12/04 04:00:47;;;;;;;8.45;2.10;;;4.40;99.90;;;;;;5053745;28;20475;-75
2021/12/04 04:03:13;;;;;;;9.32;1.90;;;4.40;99.90;;;;;;5053488;28;20078;-72
2021/12/04 04:05:39;;;;;;;11.82;1.90;;;4.40;99.90;;;;;;5055399;28;20029;-73
2021/12/04 04:08:05;;;;;;;5.60;1.60;;;4.40;99.90;;;;;;5054468;28;20036;-73
2021/12/04 04:10:31;;;;;;;7.68;2.05;;;4.40;99.90;;;;;;5054823;28;20105;-73
2021/12/04 04:12:56;;;;;;;6.07;1.63;;;4.40;99.90;;;;;;5054105;28;20112;-74
2021/12/04 04:15:22;;;;;;;7.97;1.17;;;4.30;99.90;;;;;;5054563;28;20449;-73
2021/12/04 04:17:49;;;;;;;8.30;1.38;;;4.30;99.90;;;;;;5054578;28;20447;-75
2021/12/04 04:20:17;;;;;;;2.22;1.17;;;4.30;99.90;;;;;;5054571;28;20036;-73
2021/12/04 04:22:45;;;;;;;4.45;1.27;;;4.30;99.90;;;;;;5054801;28;20091;-73
2021/12/04 04:25:12;;;;;;;5.75;0.85;;;4.30;99.90;;;;;;5053814;28;20040;-73
2021/12/04 04:27:39;;;;;;;3.58;0.80;;;4.20;99.90;;;;;;5054718;28;20086;-73
2021/12/04 04:30:11;;;;;;;6.50;1.15;;;4.30;99.90;;;;;;5053681;28;20028;-72
2021/12/04 04:32:37;;;;;;;4.28;1.15;;;4.20;99.90;;;;;;5054627;28;20029;-72
2021/12/04 04:35:09;;;;;;;6.85;1.60;;;4.20;99.90;;;;;;5058905;28;20570;-73
2021/12/04 04:40:43;;;;;;;6.45;0.90;;;4.20;99.90;;;;;;5054658;28;20409;-72
2021/12/04 04:59:48;;;;;;;3.20;0.85;;;4.20;99.90;;;;;;5054259;28;20589;-72
2021/12/04 05:12:55;;;;;;;7.07;1.33;;;4.10;99.90;;;;;;5053548;28;20040;-73
2021/12/04 05:18:16;;;;;;;7.90;1.13;;;4.20;99.90;;;;;;5051899;28;20365;-72
2021/12/04 05:20:48;;;;;;;5.38;0.77;;;4.20;99.90;;;;;;5052370;28;20032;-72
2021/12/04 05:23:14;;;;;;;;;;;4.10;99.90;;;;;;5053395;28;20084;-72
2021/12/04 05:25:40;;;;;;;3.83;0.80;;;4.20;99.90;;;;;;5053367;28;20359;-72
2021/12/04 05:28:07;;;;;;;7.75;1.05;;;4.20;99.90;;;;;;5052741;28;20099;-72
2021/12/04 05:30:34;;;;;;;6.35;0.93;;;4.20;99.90;;;;;;5053171;28;20060;-72
2021/12/04 05:33:00;;;;;;;4.65;1.00;;;4.30;99.90;;;;;;5052698;28;20523;-73
2021/12/04 05:35:27;;;;;;;9.90;1.38;;;4.20;99.90;;;;;;5053457;28;20029;-72
2021/12/04 05:37:53;;;;;;;3.95;1.08;;;4.30;99.90;;;;;;5053183;28;20420;-75
2021/12/04 05:40:19;;;;;;;5.82;1.05;;;4.30;99.90;;;;;;5052714;28;20107;-72
2021/12/04 05:42:46;;;;;;;7.65;0.80;;;4.30;99.90;;;;;;5053179;28;20043;-72
2021/12/04 05:45:24;;;;;;;4.10;1.17;;;4.30;99.90;;;;;;5052526;28;20067;-72
2021/12/04 05:48:02;;;;;;;7.85;1.23;;;4.30;99.90;;;;;;5053237;28;20083;-73
2021/12/04 05:55:26;;;;;;;5.55;0.90;;;4.40;99.90;;;;;;5052768;28;20060;-73
2021/12/04 05:57:52;;;;;;;5.07;1.10;;;4.40;99.90;;;;;;5052722;28;20029;-72
2021/12/04 06:00:22;;;;;;;8.13;1.13;;;4.40;99.90;;;;;;5052195;28;20033;-72
2021/12/04 06:02:48;;;;;;;3.78;0.98;;;4.40;99.90;;;;;;5053181;28;20033;-73
2021/12/04 06:05:15;;;;;;;5.90;0.98;;;4.40;99.90;;;;;;5051744;28;20128;-73
2021/12/04 06:07:41;;;;;;;6.95;1.25;;;4.40;99.90;;;;;;5052839;28;20029;-73
2021/12/04 06:10:08;;;;;;;3.67;0.82;;;4.40;99.90;;;;;;5051947;28;20028;-73
2021/12/04 06:12:34;;;;;;;3.38;0.60;;;4.30;99.90;;;;;;5052255;28;20037;-73
2021/12/04 06:15:00;;;;;;;7.82;0.98;;;4.30;99.90;;;;;;5051906;28;20017;-75
2021/12/04 06:17:28;;;;;;;4.95;1.35;;;4.30;99.90;;;;;;5052539;28;20025;-73
2021/12/04 06:22:42;;;;;;;4.18;0.95;;;4.20;99.90;;;;;;5052678;28;20089;-74
2021/12/04 06:25:12;;;;;;;2.90;1.00;;;4.10;99.90;;;;;;5051332;28;20025;-73
2021/12/04 06:27:39;;;;;;;5.47;1.08;;;4.10;99.90;;;;;;5052701;28;20040;-73
2021/12/04 06:30:08;;;;;;;3.10;1.10;;;4.10;99.90;;;;;;5051631;28;20025;-73
2021/12/04 06:32:37;;;;;;;4.57;0.88;;;4.00;99.90;;;;;;5051937;28;20498;-73
2021/12/04 06:35:05;;;;;;;8.98;1.00;;;4.00;99.90;;;;;;5050356;28;20040;-74
2021/12/04 06:37:31;;;;;;;3.97;1.00;;;4.00;99.90;;;;;;5052259;28;20482;-73
2021/12/04 06:39:58;;;;;;;4.03;1.02;;;3.90;99.90;;;;;;5050930;28;20025;-75
2021/12/04 06:42:24;;;;;;;6.30;1.25;;;4.00;99.90;;;;;;5052059;28;20115;-73
2021/12/04 06:44:52;;;;;;;7.47;1.10;;;3.90;99.90;;;;;;5052089;28;20114;-72
2021/12/04 06:47:18;;;;;;;5.72;1.15;;;3.90;99.90;;;;;;5051244;28;20021;-73
2021/12/04 06:49:44;;;;;;;3.58;1.05;;;4.00;99.90;;;;;;5051879;28;20060;-72
2021/12/04 06:52:18;;;;;;;10.25;1.55;;;4.00;99.90;;;;;;5051118;28;20033;-72
2021/12/04 06:54:56;;;;;;;7.35;1.33;;;4.00;99.90;;;;;;5051593;28;20049;-74
2021/12/04 06:57:22;;;;;;;8.52;1.90;;;4.00;99.90;;;;;;5051377;28;20029;-72
2021/12/04 06:59:50;;;;;;;6.38;1.10;;;4.00;99.90;;;;;;5051961;28;20029;-72
2021/12/04 07:02:16;;;;;;;6.95;1.08;;;4.10;99.90;;;;;;5051181;28;20033;-73
2021/12/04 07:04:42;;;;;;;5.25;1.30;;;4.10;99.90;;;;;;5052534;28;20029;-73
2021/12/04 07:07:08;;;;;;;6.30;1.48;;;4.10;99.90;;;;;;5054701;28;20104;-74
2021/12/04 07:09:35;;;;;;;6.68;1.20;;;4.10;99.90;;;;;;5051592;28;20452;-73
2021/12/04 07:12:02;;;;;;;8.73;1.45;;;4.10;99.90;;;;;;5051403;28;20116;-75
2021/12/04 07:14:28;;;;;;;8.85;1.63;;;4.10;99.90;;;;;;5051538;28;20029;-72
2021/12/04 07:16:55;;;;;;;7.20;1.25;;;4.10;99.90;;;;;;5052023;28;20029;-72
2021/12/04 07:19:21;;;;;;;5.50;1.30;;;4.10;99.90;;;;;;5051071;28;20013;-73
2021/12/04 07:21:47;;;;;;;8.52;1.75;;;4.10;99.90;;;;;;5051722;28;20036;-72
2021/12/04 07:24:14;;;;;;;8.70;1.52;;;4.20;99.90;;;;;;5050980;28;20033;-72
2021/12/04 07:26:40;;;;;;;6.25;1.40;;;4.20;99.90;;;;;;5051412;28;20052;-74
2021/12/04 07:29:06;;;;;;;8.90;1.50;;;4.20;99.90;;;;;;5050889;28;20053;-73
2021/12/04 07:31:33;;;;;;;6.97;1.42;;;4.20;99.90;;;;;;5051859;28;20040;-72
2021/12/04 07:34:00;;;;;;;9.05;1.23;;;4.10;99.90;;;;;;5051576;28;20048;-72
2021/12/04 07:36:26;;;;;;;6.20;1.20;;;4.10;99.90;;;;;;5050869;28;20514;-72
2021/12/04 07:38:52;;;;;;;7.20;1.40;;;4.10;99.90;;;;;;5051326;28;20384;-72
2021/12/04 07:41:18;;;;;;;7.97;1.52;;;4.00;99.90;;;;;;5050615;28;20499;-72
2021/12/04 07:43:44;;;;;;;6.72;1.65;;;4.00;99.90;;;;;;5051643;28;20029;-73
2021/12/04 07:46:11;;;;;;;11.02;1.95;;;4.00;99.90;;;;;;5050396;28;20033;-73
2021/12/04 07:48:37;;;;;;;7.40;1.52;;;4.00;99.90;;;;;;5051530;28;20024;-73
2021/12/04 07:51:04;;;;;;;7.47;1.45;;;3.90;99.90;;;;;;5051546;28;20025;-74
2021/12/04 07:53:30;;;;;;;7.47;1.48;;;3.90;99.90;;;;;;5049844;28;20040;-73
2021/12/04 07:55:56;;;;;;;5.38;1.58;;;3.90;99.90;;;;;;5051590;28;20459;-73
2021/12/04 07:58:22;;;;;;;5.13;1.30;;;3.90;99.90;;;;;;5050676;28;20053;-74
2021/12/04 08:00:48;;;;;;;6.88;1.05;;;3.80;99.90;;;;;;5051433;28;20021;-73
2021/12/04 08:03:14;;;;;;;7.63;1.38;;;3.80;99.90;;;;;;5050567;28;20386;-73
2021/12/04 08:05:40;;;;;;;6.80;1.40;;;3.80;99.90;;;;;;5051340;28;20025;-73
2021/12/04 08:08:05;;;;;;;5.70;1.42;;;3.90;99.90;;;;;;5051039;28;20029;-75
2021/12/04 08:10:33;;;;;;;9.38;1.83;;;3.90;99.90;;;;;;5051348;28;20408;-73
2021/12/04 08:12:59;;;;;;;8.15;1.60;;;4.00;99.90;;;;;;5051314;28;20040;-73
2021/12/04 08:15:25;;;;;;;11.43;1.88;;;4.00;99.90;;;;;;5050371;28;20609;-73
2021/12/04 08:17:51;;;;;;;7.30;1.42;;;4.10;99.90;;;;;;5050815;28;20460;-73
2021/12/04 08:20:17;;;;;;;5.95;1.38;;;4.10;99.90;;;;;;5053396;28;20083;-73
2021/12/04 08:22:44;;;;;;;4.47;1.30;;;4.10;99.90;;;;;;5057060;28;20102;-73
2021/12/04 08:25:12;;;;;;;5.88;1.42;;;4.20;99.90;;;;;;5058439;28;20029;-74
2021/12/04 08:27:39;;;;;;;8.98;1.88;;;4.20;99.90;;;;;;5054856;28;20056;-73
2021/12/04 08:30:08;;;;;;;8.48;1.48;;;4.10;99.90;;;;;;5053851;28;20616;-75
2021/12/04 08:32:34;;;;;;;8.48;2.60;;;4.20;99.90;;;;;;5054362;28;20025;-73
2021/12/04 08:35:02;;;;;;;6.85;1.70;;;4.20;99.90;;;;;;5054852;28;20029;-73
2021/12/04 08:37:28;;;;;;;12.60;2.35;;;4.10;99.90;;;;;;5053663;28;20679;-73
2021/12/04 08:39:54;;;;;;;8.70;1.80;;;4.10;99.90;;;;;;5053969;28;20039;-73
2021/12/04 08:42:22;;;;;;;5.22;1.20;;;4.10;99.90;;;;;;5053655;28;20028;-73
2021/12/04 08:44:48;;;;;;;5.68;1.50;;;4.10;99.90;;;;;;5054355;28;20025;-73
2021/12/04 08:47:14;;;;;;;11.68;2.03;;;4.10;99.90;;;;;;5053370;28;20035;-73
2021/12/04 08:49:40;;;;;;;12.20;2.20;;;4.10;99.90;;;;;;5054018;28;20031;-73
2021/12/04 08:52:08;;;;;;;10.55;1.70;;;4.10;99.90;;;;;;5054008;28;20365;-72
2021/12/04 08:54:35;;;;;;;12.63;2.35;;;4.10;99.90;;;;;;5053363;28;20080;-73
2021/12/04 08:57:02;;;;;;;8.98;2.13;;;4.10;99.90;;;;;;5054161;28;20032;-73
2021/12/04 08:59:29;;;;;;;8.00;2.08;;;4.20;99.90;;;;;;5053337;28;20021;-73
2021/12/04 09:01:55;;;;;;;6.63;1.70;;;4.20;99.90;;;;;;5054309;28;20025;-73
2021/12/04 09:04:24;;;;;;;7.97;2.30;;;4.30;99.90;;;;;;5053197;28;20040;-73
2021/12/04 09:06:52;;;;;;;11.10;1.95;;;4.30;99.90;;;;;;5053943;28;20165;-72
2021/12/04 09:09:20;;;;;;;12.65;2.25;;;4.30;99.90;;;;;;5053188;28;20057;-73
2021/12/04 09:11:52;;;;;;;13.52;2.60;;;4.40;99.90;;;;;;5053563;28;20109;-72
2021/12/04 09:14:21;;;;;;;10.18;2.25;;;4.50;99.90;;;;;;5053049;28;20025;-73
2021/12/04 09:16:51;;;;;;;9.35;2.20;;;4.60;99.90;;;;;;5053587;28;20029;-73
2021/12/04 09:19:18;;;;;;;8.80;1.95;;;4.60;99.90;;;;;;5051749;28;20029;-73
2021/12/04 09:21:45;;;;;;;10.07;1.58;;;4.60;99.90;;;;;;5053752;28;20382;-73
2021/12/04 09:24:14;;;;;;;11.73;2.25;;;4.60;99.90;;;;;;5052918;28;20529;-76
2021/12/04 10:20:36;;;;;;;9.93;2.33;;;4.90;99.90;;;;;;5052208;28;20093;-73
2021/12/04 10:33:57;;;;;;;8.95;1.85;;;5.10;99.90;;;;;;5051721;28;20036;-73
2021/12/04 10:36:41;;;;;;;5.38;1.85;;;5.20;99.90;;;;;;5050680;28;20044;-73
2021/12/04 10:39:09;;;;;;;11.90;2.05;;;5.20;99.90;;;;;;5052055;28;20025;-73
2021/12/04 10:41:42;;;;;;;8.10;1.52;;;5.20;99.90;;;;;;5050878;28;20317;-73
2021/12/04 10:44:16;;;;;;;6.93;1.73;;;5.20;99.90;;;;;;5050278;28;20025;-73
2021/12/04 10:47:13;;;;;;;9.07;2.13;;;5.20;99.90;;;;;;5051503;28;20027;-73
2021/12/04 10:49:55;;;;;;;8.52;3.03;;;5.20;99.90;;;;;;5046177;28;20041;-73
2021/12/04 10:52:28;;;;;;;7.82;1.80;;;5.30;99.90;;;;;;5050770;28;20068;-74
2021/12/04 10:55:17;;;;;;;8.05;1.92;;;5.30;99.90;;;;;;5051463;28;20048;-73
2021/12/04 11:00:24;;;;;;;6.70;1.67;;;5.30;99.90;;;;;;5051387;28;20025;-76
2021/12/04 11:03:02;;;;;;;6.95;1.98;;;5.40;99.90;;;;;;5051509;28;20033;-73
2021/12/04 11:28:11;;;;;;;10.02;2.08;;;5.60;99.90;;;;;;5051538;28;19919;-73
2021/12/04 11:44:08;;;;;;;8.85;1.67;;;5.80;99.90;;;;;;5051273;28;20029;-72
2021/12/04 11:46:45;;;;;;;7.18;1.98;;;5.80;99.90;;;;;;5049993;28;20036;-73
2021/12/04 11:49:18;;;;;;;6.13;1.92;;;5.70;99.90;;;;;;5050745;28;20032;-72
2021/12/04 11:52:11;;;;;;;10.50;1.70;;;5.80;99.90;;;;;;5049988;28;20032;-72
2021/12/04 11:54:49;;;;;;;11.50;2.22;;;5.80;99.90;;;;;;5051739;28;20064;-73
2021/12/04 11:57:35;;;;;;;6.28;1.85;;;5.80;99.90;;;;;;5054644;28;20360;-73
2021/12/04 12:00:17;;;;;;;8.88;2.45;;;5.80;99.90;;;;;;5054586;28;20419;-73
2021/12/04 12:02:44;;;;;;;6.05;2.10;;;5.90;99.90;;;;;;5052521;28;20032;-73
2021/12/04 12:05:17;;;;;;;8.30;1.98;;;6.00;99.90;;;;;;5054014;28;20391;-72
2021/12/04 12:07:55;;;;;;;4.22;1.85;;;6.10;99.90;;;;;;5053558;28;20132;-72
2021/12/04 12:10:25;;;;;;;8.43;2.17;;;6.20;99.90;;;;;;5054125;28;20068;-76
2021/12/04 12:13:03;;;;;;;7.75;1.55;;;6.30;99.90;;;;;;5052555;28;20040;-74
2021/12/04 12:15:34;;;;;;;9.57;2.33;;;6.30;99.90;;;;;;5053513;28;20498;-72
2021/12/04 12:18:18;;;;;;;6.82;2.13;;;6.30;99.90;;;;;;5053868;28;20540;-72
2021/12/04 12:21:01;;;;;;;6.75;1.52;;;6.40;99.90;;;;;;5053312;28;20040;-73
2021/12/04 12:23:30;;;;;;;7.45;1.65;;;6.40;99.90;;;;;;5053506;28;20360;-74
2021/12/04 12:37:21;;;;;;;3.63;1.10;;;6.50;99.90;;;;;;5053705;28;20036;-73
2021/12/04 12:39:55;;;;;;;8.20;1.75;;;6.40;99.90;;;;;;5052123;28;20443;-73
2021/12/04 12:42:41;;;;;;;10.45;1.67;;;6.40;99.90;;;;;;5054320;28;20067;-76
2021/12/04 12:45:36;;;;;;;6.10;1.63;;;6.30;99.90;;;;;;5055267;28;20108;-74
2021/12/04 12:48:08;;;;;;;5.18;1.55;;;6.30;99.90;;;;;;5053387;28;20036;-73
2021/12/04 12:50:40;;;;;;;5.93;1.50;;;6.40;99.90;;;;;;5052679;28;20029;-73
2021/12/04 12:53:25;;;;;;;4.80;1.42;;;6.40;99.90;;;;;;5053168;28;20040;-74
2021/12/04 12:56:02;;;;;;;6.85;1.50;;;6.40;99.90;;;;;;5053468;28;20048;-72
2021/12/04 12:58:36;;;;;;;7.50;2.03;;;6.40;99.90;;;;;;5052422;28;20025;-72
2021/12/04 13:12:21;;;;;;;13.80;1.77;;;6.50;99.90;;;;;;5053281;28;20040;-74
2021/12/04 13:14:51;;;;;;;5.45;1.65;;;6.50;99.90;;;;;;5052963;28;20043;-73
2021/12/04 13:17:26;;;;;;;6.22;1.35;;;6.50;99.90;;;;;;5053512;28;20032;-73
2021/12/04 13:19:54;;;;;;;5.07;1.70;;;6.40;99.90;;;;;;5053966;28;20104;-73
2021/12/04 13:22:31;;;;;;;5.63;1.58;;;6.40;99.90;;;;;;5053710;28;20039;-73
2021/12/04 13:25:00;;;;;;;4.53;1.35;;;6.40;99.90;;;;;;5053095;28;20489;-73
2021/12/04 13:29:57;;;;;;;6.57;1.30;;;6.30;99.90;;;;;;5052858;28;20024;-73
2021/12/04 13:32:35;;;;;;;6.07;1.30;;;6.20;99.90;;;;;;5053365;28;20055;-74
2021/12/04 13:35:17;;;;;;;4.97;1.95;;;6.20;99.90;;;;;;5053244;28;20025;-73
2021/12/04 13:37:44;;;;;;;5.10;1.77;;;6.10;99.90;;;;;;5052613;28;20804;-73
2021/12/04 13:40:14;;;;;;;6.22;1.58;;;6.10;99.90;;;;;;5051533;28;20029;-73
2021/12/04 13:42:40;;;;;;;7.90;1.88;;;6.10;99.90;;;;;;5051941;28;20032;-73
2021/12/04 13:45:10;;;;;;;6.13;1.48;;;6.10;99.90;;;;;;5051755;28;20106;-73
2021/12/04 13:47:36;;;;;;;3.03;1.48;;;6.10;99.90;;;;;;5052070;28;20025;-73
2021/12/04 13:51:05;;;;;;;11.00;1.88;;;6.20;99.90;;;;;;5051395;28;20029;-72
2021/12/04 13:53:05;;;;;;;9.85;1.80;;;6.10;99.90;;;;;;5047736;28;20049;-72
2021/12/04 13:55:34;;;;;;;3.42;1.63;;;6.10;99.90;;;;;;5051629;28;20052;-72
2021/12/04 13:58:03;;;;;;;8.52;1.90;;;6.10;99.90;;;;;;5052945;28;20033;-73
2021/12/04 14:00:29;;;;;;;7.22;1.70;;;6.10;99.90;;;;;;5055857;28;20048;-74
2021/12/04 14:02:54;;;;;;;7.07;2.17;;;6.10;99.90;;;;;;5052429;28;20063;-73
2021/12/04 14:05:22;;;;;;;6.20;2.08;;;6.10;99.90;;;;;;5052711;28;20105;-73
2021/12/04 14:07:55;;;;;;;6.32;1.77;;;6.00;99.90;;;;;;5051734;28;20083;-73
2021/12/04 14:10:28;;;;;;;5.90;1.80;;;6.00;99.90;;;;;;5050967;28;20029;-74
2021/12/04 14:12:57;;;;;;;6.78;1.85;;;6.00;99.90;;;;;;5052504;28;20036;-73
2021/12/04 14:15:24;;;;;;;4.65;1.67;;;6.00;99.90;;;;;;5052592;28;20033;-73
2021/12/04 14:18:02;;;;;;;7.97;2.67;;;6.10;99.90;;;;;;5051223;28;20783;-73
2021/12/04 14:20:29;;;;;;;6.95;2.22;;;6.10;99.90;;;;;;5051792;28;20033;-76
2021/12/04 14:22:56;;;;;;;19.38;11.15;;;6.10;99.90;;;;;;5052192;28;20025;-74
2021/12/04 14:25:24;;;;;;;11.50;5.43;;;6.20;99.90;;;;;;5052258;28;20487;-74
2021/12/04 14:27:50;;;;;;;6.95;3.17;;;6.20;99.90;;;;;;5051419;28;20026;-73
2021/12/04 14:30:24;;;;;;;9.65;3.50;;;6.10;99.90;;;;;;5052152;28;20025;-73
2021/12/04 14:32:55;;;;;;;6.07;2.85;;;6.10;99.90;;;;;;5051435;28;20036;-74
2021/12/04 14:35:25;;;;;;;6.53;3.35;;;6.10;99.90;;;;;;5052261;28;20029;-74
2021/12/04 14:37:55;;;;;;;9.43;3.13;;;6.00;99.90;;;;;;5051667;28;20051;-74
2021/12/04 14:40:31;;;;;;;7.10;1.90;;;6.00;99.90;;;;;;5051993;28;20452;-73
2021/12/04 14:42:57;;;;;;;6.97;2.58;;;6.00;99.90;;;;;;5052097;28;20036;-73
2021/12/04 14:45:26;;;;;;;6.68;1.73;;;6.00;99.90;;;;;;5052095;28;20032;-73
2021/12/04 14:48:03;;;;;;;6.82;1.77;;;6.00;99.90;;;;;;5051220;28;20032;-73
2021/12/04 14:50:29;;;;;;;4.20;1.58;;;5.90;99.90;;;;;;5051797;28;20056;-76
2021/12/04 14:53:01;;;;;;;5.78;2.17;;;6.00;99.90;;;;;;5051207;28;20037;-73
2021/12/04 14:55:35;;;;;;;4.50;1.73;;;6.00;99.90;;;;;;5051547;28;20060;-73
2021/12/04 14:58:06;;;;;;;5.38;1.95;;;6.00;99.90;;;;;;5052000;28;20033;-73
2021/12/04 15:00:37;;;;;;;5.88;1.88;;;6.00;99.90;;;;;;5050948;28;20498;-75
2021/12/04 15:03:10;;;;;;;5.63;2.17;;;5.90;99.90;;;;;;5051756;28;20032;-73
2021/12/04 15:05:38;;;;;;;;;;;5.90;99.90;;;;;;5050998;28;20057;-73
2021/12/04 15:08:06;;;;;;;6.93;2.47;;;5.90;99.90;;;;;;5050622;28;20299;-73
2021/12/04 15:10:32;;;;;;;7.90;1.80;;;5.80;99.90;;;;;;5051275;28;20029;-75
2021/12/04 15:12:59;;;;;;;10.00;5.00;;;5.80;99.90;;;;;;5054182;28;20037;-73
2021/12/04 15:15:36;;;;;;;11.20;3.60;;;5.80;99.90;;;;;;5051749;28;20456;-73
2021/12/04 15:18:10;;;;;;;8.27;2.88;;;5.80;99.90;;;;;;5051798;28;20036;-73
2021/12/04 15:20:41;;;;;;;5.90;2.13;;;5.70;99.90;;;;;;5050680;28;20418;-74
2021/12/04 15:23:13;;;;;;;10.05;4.82;;;5.60;99.90;;;;;;5051024;28;20108;-73
2021/12/04 15:25:41;;;;;;;11.70;3.20;;;5.60;99.90;;;;;;5050350;28;20501;-72
2021/12/04 15:28:21;;;;;;;12.95;3.90;;;5.60;99.90;;;;;;5050742;28;20063;-73
2021/12/04 15:30:50;;;;;;;13.95;3.30;;;5.50;99.90;;;;;;5053791;28;20059;-72
2021/12/04 15:33:41;;;;;;;11.82;4.57;;;5.50;99.90;;;;;;5054680;28;20422;-73
2021/12/04 15:36:11;;;;;;;6.00;2.80;;;5.40;99.90;;;;;;5052375;28;20437;-72
2021/12/04 15:38:49;;;;;;;12.85;5.75;;;5.40;99.90;;;;;;5054182;28;20017;-73
2021/12/04 15:44:40;;;;;;;12.48;3.88;;;5.20;99.90;;;;;;5054575;28;20047;-73
2021/12/04 15:55:07;;;;;;;8.48;4.60;;;5.10;99.90;;;;;;5054453;28;20056;-72
2021/12/04 15:57:34;;;;;;;9.02;2.88;;;5.00;99.90;;;;;;5055983;28;20053;-75
2021/12/04 16:00:12;;;;;;;5.97;1.85;;;5.00;99.90;;;;;;5052526;28;20044;-72
2021/12/04 16:02:50;;;;;;;5.68;2.47;;;4.90;99.90;;;;;;5053169;28;20556;-73
2021/12/04 16:05:20;;;;;;;7.55;2.95;;;4.90;99.90;;;;;;5054479;28;20032;-73
2021/12/04 16:07:49;;;;;;;5.15;2.38;;;4.80;99.90;;;;;;5053634;28;20029;-73
2021/12/04 16:10:18;;;;;;;8.68;2.75;;;4.80;99.90;;;;;;5054159;28;20036;-72
2021/12/04 16:12:53;;;;;;;8.88;3.90;;;4.80;99.90;;;;;;5052939;28;20496;-73
2021/12/04 16:15:21;;;;;;;5.70;2.78;;;4.70;99.90;;;;;;5053542;28;20071;-73
2021/12/04 16:17:47;;;;;;;8.05;2.92;;;4.70;99.90;;;;;;5053555;28;20023;-73
2021/12/04 16:20:17;;;;;;;7.82;3.47;;;4.70;99.90;;;;;;5054086;28;20025;-73
2021/12/04 16:22:42;;;;;;;6.13;2.47;;;4.70;99.90;;;;;;5053064;28;20056;-73
2021/12/04 16:25:15;;;;;;;5.85;2.42;;;4.60;99.90;;;;;;5052682;28;20052;-73
2021/12/04 16:28:38;;;;;;;6.07;2.65;;;4.60;99.90;;;;;;5051879;28;20375;-73
2021/12/04 16:30:39;;;;;;;6.72;2.45;;;4.60;99.90;;;;;;5046820;28;20033;-73